createdAt,value
2022-07-26T00:02:18.257Z,99.50
2022-07-26T00:04:46.593Z,99.60
2022-07-26T00:07:16.114Z,99.90
2022-07-26T00:09:48.469Z,99.90
2022-07-26T00:12:17.097Z,99.90
2022-07-26T00:14:45.276Z,99.90
2022-07-26T00:17:13.430Z,99.90
2022-07-26T00:19:41.588Z,99.90
2022-07-26T00:22:41.905Z,99.90
2022-07-26T00:25:11.889Z,99.90
2022-07-26T00:27:39.981Z,99.90
2022-07-26T00:30:10.304Z,99.90
2022-07-26T00:32:39.445Z,99.90
2022-07-26T00:35:07.998Z,99.90
2022-07-26T00:37:36.069Z,99.90
2022-07-26T00:40:07.403Z,99.90
2022-07-26T00:42:38.688Z,99.90
2022-07-26T00:45:09.193Z,99.90
2022-07-26T00:47:37.724Z,99.90
2022-07-26T00:50:08.014Z,99.90
2022-07-26T00:52:36.185Z,99.90
2022-07-26T00:55:06.623Z,99.90
2022-07-26T00:57:35.782Z,99.90
2022-07-26T01:00:07.908Z,99.90
2022-07-26T01:02:36.308Z,99.90
2022-07-26T01:05:04.611Z,99.90
2022-07-26T01:07:32.820Z,99.90
2022-07-26T01:10:00.997Z,99.90
2022-07-26T01:12:31.637Z,99.90
2022-07-26T01:14:59.855Z,99.90
2022-07-26T01:17:29.282Z,99.90
2022-07-26T01:19:57.375Z,99.90
2022-07-26T01:22:26.906Z,99.90
2022-07-26T01:24:55.037Z,99.90
2022-07-26T01:27:23.098Z,99.90
2022-07-26T01:29:51.929Z,99.90
2022-07-26T01:32:20.169Z,99.90
2022-07-26T01:34:48.332Z,99.90
2022-07-26T01:37:16.663Z,99.90
2022-07-26T01:39:46.502Z,99.90
2022-07-26T01:42:14.566Z,99.90
2022-07-26T01:44:42.655Z,99.90
2022-07-26T01:47:10.705Z,99.90
2022-07-26T01:49:38.755Z,99.90
2022-07-26T01:52:07.264Z,99.90
2022-07-26T01:54:35.288Z,99.90
2022-07-26T01:57:05.034Z,99.90
2022-07-26T01:59:33.250Z,99.90
2022-07-26T02:02:01.587Z,99.90
2022-07-26T02:04:47.223Z,99.90
2022-07-26T02:07:15.310Z,99.90
2022-07-26T02:09:43.430Z,99.90
2022-07-26T02:12:12.959Z,99.90
2022-07-26T02:14:41.054Z,99.90
2022-07-26T02:17:09.719Z,99.90
2022-07-26T02:19:38.001Z,99.90
2022-07-26T02:22:06.520Z,99.90
2022-07-26T02:24:37.562Z,99.90
2022-07-26T02:27:06.197Z,99.90
2022-07-26T02:29:35.616Z,99.90
2022-07-26T02:32:03.706Z,99.90
2022-07-26T02:34:33.891Z,99.90
2022-07-26T02:37:02.605Z,99.90
2022-07-26T02:39:31.167Z,99.90
2022-07-26T02:42:01.552Z,99.90
2022-07-26T02:44:30.864Z,99.90
2022-07-26T02:47:00.275Z,99.90
2022-07-26T02:49:28.521Z,99.90
2022-07-26T02:51:56.563Z,99.90
2022-07-26T02:54:24.624Z,99.90
2022-07-26T02:56:52.706Z,99.90
2022-07-26T02:59:20.803Z,99.90
2022-07-26T03:01:48.877Z,99.90
2022-07-26T03:04:18.422Z,99.90
2022-07-26T03:06:46.433Z,99.90
2022-07-26T03:09:17.667Z,99.90
2022-07-26T03:11:45.772Z,99.90
2022-07-26T03:14:13.958Z,99.90
2022-07-26T03:16:42.003Z,99.90
2022-07-26T03:19:10.148Z,99.90
2022-07-26T03:21:39.613Z,99.90
2022-07-26T03:24:08.477Z,99.90
2022-07-26T03:26:36.854Z,99.90
2022-07-26T03:29:05.010Z,99.90
2022-07-26T03:31:33.139Z,99.90
2022-07-26T03:34:04.061Z,99.90
2022-07-26T03:36:32.264Z,99.90
2022-07-26T03:39:04.182Z,99.90
2022-07-26T03:41:32.455Z,99.90
2022-07-26T03:44:00.504Z,99.90
2022-07-26T03:46:29.476Z,99.90
2022-07-26T03:48:57.942Z,99.90
2022-07-26T03:51:26.120Z,99.90
2022-07-26T03:53:54.149Z,99.90
2022-07-26T03:56:35.436Z,99.90
2022-07-26T03:59:05.758Z,99.90
2022-07-26T04:01:35.089Z,99.90
2022-07-26T04:04:03.478Z,99.90
2022-07-26T04:06:31.611Z,99.90
2022-07-26T04:08:59.723Z,99.90
2022-07-26T04:11:29.160Z,99.90
2022-07-26T04:13:57.393Z,99.90
2022-07-26T04:16:25.631Z,99.90
2022-07-26T04:18:54.063Z,99.90
2022-07-26T04:21:37.521Z,99.90
2022-07-26T04:24:05.958Z,99.90
2022-07-26T04:26:35.783Z,99.90
2022-07-26T04:29:03.902Z,99.90
2022-07-26T04:31:36.401Z,99.90
2022-07-26T04:34:04.999Z,99.90
2022-07-26T04:36:33.384Z,99.90
2022-07-26T04:39:01.452Z,99.90
2022-07-26T04:41:29.537Z,99.90
2022-07-26T04:43:59.105Z,99.90
2022-07-26T04:46:27.223Z,99.90
2022-07-26T04:48:55.403Z,99.90
2022-07-26T04:51:23.494Z,99.90
2022-07-26T04:53:51.980Z,99.90
2022-07-26T04:56:20.073Z,99.90
2022-07-26T04:58:48.133Z,99.90
2022-07-26T05:01:17.571Z,99.90
2022-07-26T05:03:45.685Z,99.90
2022-07-26T05:06:13.771Z,99.90
2022-07-26T05:08:43.338Z,99.90
2022-07-26T05:11:11.649Z,99.90
2022-07-26T05:13:39.809Z,99.90
2022-07-26T05:16:11.918Z,99.90
2022-07-26T05:18:48.828Z,99.90
2022-07-26T05:21:18.527Z,99.90
2022-07-26T05:23:46.850Z,99.90
2022-07-26T05:26:15.261Z,99.90
2022-07-26T05:28:43.450Z,99.90
2022-07-26T05:31:11.606Z,99.90
2022-07-26T05:33:41.146Z,99.90
2022-07-26T05:36:09.665Z,99.90
2022-07-26T05:38:38.112Z,99.90
2022-07-26T05:41:06.538Z,99.30
2022-07-26T05:43:40.790Z,98.20
2022-07-26T05:46:10.642Z,97.80
2022-07-26T05:48:42.551Z,96.40
2022-07-26T05:51:10.909Z,96.60
2022-07-26T05:53:39.419Z,95.90
2022-07-26T05:56:08.388Z,95.20
2022-07-26T05:58:37.308Z,94.50
2022-07-26T06:01:05.464Z,93.40
2022-07-26T06:03:33.607Z,93.00
2022-07-26T06:06:03.012Z,92.80
2022-07-26T06:08:31.145Z,92.00
2022-07-26T06:10:59.338Z,91.50
2022-07-26T06:13:27.423Z,91.10
2022-07-26T06:15:57.913Z,90.90
2022-07-26T06:18:26.525Z,90.50
2022-07-26T06:20:54.608Z,90.20
2022-07-26T06:23:34.694Z,89.50
2022-07-26T06:26:04.782Z,88.40
2022-07-26T06:28:33.254Z,84.80
2022-07-26T06:31:01.758Z,82.60
2022-07-26T06:33:29.848Z,83.20
2022-07-26T06:35:57.947Z,83.70
2022-07-26T06:38:27.727Z,83.10
2022-07-26T06:40:56.069Z,84.00
2022-07-26T06:43:24.191Z,84.70
2022-07-26T06:45:52.380Z,86.10
2022-07-26T06:48:20.612Z,86.60
2022-07-26T06:50:48.674Z,86.40
2022-07-26T06:53:16.821Z,86.00
2022-07-26T06:55:46.252Z,85.50
2022-07-26T06:58:14.285Z,82.60
2022-07-26T07:00:42.541Z,83.00
2022-07-26T07:03:10.815Z,82.40
2022-07-26T07:05:38.906Z,81.20
2022-07-26T07:08:07.687Z,79.70
2022-07-26T07:10:35.926Z,79.40
2022-07-26T07:13:05.584Z,79.50
2022-07-26T07:15:33.656Z,78.00
2022-07-26T07:18:01.743Z,78.10
2022-07-26T07:20:30.014Z,79.10
2022-07-26T07:22:58.257Z,79.70
2022-07-26T07:25:30.408Z,80.30
2022-07-26T07:27:59.326Z,80.10
2022-07-26T07:30:29.017Z,79.90
2022-07-26T07:32:57.304Z,78.50
2022-07-26T07:35:32.121Z,77.00
2022-07-26T07:38:01.900Z,75.60
2022-07-26T07:40:30.430Z,75.60
2022-07-26T07:42:58.977Z,74.50
2022-07-26T07:45:28.770Z,73.70
2022-07-26T07:47:59.180Z,74.70
2022-07-26T07:50:28.406Z,74.60
2022-07-26T07:52:59.111Z,72.80
2022-07-26T07:55:44.076Z,73.70
2022-07-26T07:58:17.287Z,75.20
2022-07-26T08:00:48.719Z,75.00
2022-07-26T08:03:17.903Z,75.70
2022-07-26T08:05:49.743Z,76.00
2022-07-26T08:08:22.509Z,76.50
2022-07-26T08:10:52.946Z,76.70
2022-07-26T08:13:23.539Z,77.60
2022-07-26T08:15:54.365Z,78.00
2022-07-26T08:18:25.313Z,79.30
2022-07-26T08:20:54.701Z,79.70
2022-07-26T08:23:23.155Z,80.20
2022-07-26T08:26:03.263Z,81.40
2022-07-26T08:28:48.679Z,82.30
2022-07-26T08:31:24.981Z,83.40
2022-07-26T08:33:53.146Z,84.20
2022-07-26T08:36:21.384Z,83.50
2022-07-26T08:38:49.672Z,83.80
2022-07-26T08:41:18.833Z,84.30
2022-07-26T08:43:52.752Z,85.60
2022-07-26T08:46:27.511Z,85.20
2022-07-26T08:48:56.653Z,85.60
2022-07-26T08:51:26.252Z,85.60
2022-07-26T08:54:02.171Z,86.60
2022-07-26T08:56:33.169Z,86.00
2022-07-26T08:59:05.504Z,85.40
2022-07-26T09:01:35.314Z,84.20
2022-07-26T09:04:31.701Z,83.80
2022-07-26T09:07:03.996Z,84.00
2022-07-26T09:09:33.316Z,84.20
2022-07-26T09:12:15.631Z,84.50
2022-07-26T09:14:46.697Z,85.30
2022-07-26T09:17:17.910Z,85.50
2022-07-26T09:19:46.483Z,85.30
2022-07-26T09:22:16.596Z,85.20
2022-07-26T09:24:46.981Z,84.40
2022-07-26T09:27:17.344Z,84.40
2022-07-26T09:29:47.334Z,83.80
2022-07-26T09:32:19.635Z,81.80
2022-07-26T09:34:53.095Z,81.60
2022-07-26T09:37:35.804Z,80.50
2022-07-26T09:40:07.240Z,79.90
2022-07-26T09:42:35.919Z,79.50
2022-07-26T09:45:29.470Z,80.00
2022-07-26T09:48:01.838Z,78.50
2022-07-26T09:50:31.820Z,79.10
2022-07-26T09:53:08.641Z,79.20
2022-07-26T09:55:44.690Z,79.00
2022-07-26T09:58:17.697Z,79.30
2022-07-26T10:00:49.156Z,79.50
2022-07-26T10:03:18.703Z,80.00
2022-07-26T10:05:46.947Z,80.20
2022-07-26T10:08:15.637Z,80.80
2022-07-26T10:10:47.582Z,80.70
2022-07-26T10:13:15.886Z,81.90
2022-07-26T10:15:46.762Z,83.50
2022-07-26T10:18:50.378Z,83.20
2022-07-26T10:21:21.404Z,83.60
2022-07-26T10:23:50.977Z,83.10
2022-07-26T10:26:42.107Z,82.40
2022-07-26T10:29:28.002Z,82.40
2022-07-26T10:32:16.892Z,83.40
2022-07-26T10:34:46.475Z,83.30
2022-07-26T10:37:24.706Z,82.90
2022-07-26T10:40:15.689Z,82.50
2022-07-26T10:42:45.443Z,82.00
2022-07-26T10:45:22.592Z,81.50
2022-07-26T10:48:16.787Z,83.40
2022-07-26T10:50:48.179Z,83.70
2022-07-26T10:53:20.981Z,83.80
2022-07-26T10:55:53.173Z,83.50
2022-07-26T10:58:22.130Z,83.50
2022-07-26T11:00:59.107Z,83.40
2022-07-26T11:03:38.756Z,82.30
2022-07-26T11:06:16.266Z,82.50
2022-07-26T11:08:48.274Z,81.90
2022-07-26T11:11:29.126Z,82.90
2022-07-26T11:14:07.562Z,82.60
2022-07-26T11:16:40.582Z,82.40
2022-07-26T11:19:16.504Z,82.30
2022-07-26T11:21:49.181Z,81.60
2022-07-26T11:24:17.326Z,80.60
2022-07-26T11:26:46.546Z,80.90
2022-07-26T11:29:38.167Z,80.90
2022-07-26T11:32:18.165Z,80.70
2022-07-26T11:34:47.255Z,81.40
2022-07-26T11:37:16.739Z,81.90
2022-07-26T11:39:45.501Z,82.10
2022-07-26T11:42:16.300Z,82.70
2022-07-26T11:44:45.571Z,82.80
2022-07-26T11:47:14.618Z,83.00
2022-07-26T11:50:00.233Z,83.80
2022-07-26T11:52:33.363Z,83.40
2022-07-26T11:55:01.476Z,84.00
2022-07-26T11:57:31.229Z,83.90
2022-07-26T12:00:01.039Z,84.90
2022-07-26T12:02:39.573Z,85.60
2022-07-26T12:05:16.296Z,85.80
2022-07-26T12:07:59.934Z,86.20
2022-07-26T12:10:28.533Z,86.80
2022-07-26T12:13:10.977Z,87.30
2022-07-26T12:15:47.783Z,87.70
2022-07-26T12:18:24.546Z,88.20
2022-07-26T12:21:04.943Z,89.20
2022-07-26T12:23:50.048Z,90.20
2022-07-26T12:26:26.055Z,91.30
2022-07-26T12:28:57.452Z,92.30
2022-07-26T12:31:27.848Z,93.20
2022-07-26T12:33:56.582Z,93.70
2022-07-26T12:36:28.072Z,94.10
2022-07-26T12:38:59.615Z,94.50
2022-07-26T12:41:35.682Z,94.90
2022-07-26T12:44:04.319Z,95.30
2022-07-26T12:46:34.440Z,95.60
2022-07-26T12:49:03.091Z,96.20
2022-07-26T12:51:31.527Z,96.80
2022-07-26T12:54:01.114Z,97.30
2022-07-26T12:56:29.290Z,98.00
2022-07-26T12:59:01.396Z,99.40
2022-07-26T13:01:39.706Z,99.90
2022-07-26T13:04:14.155Z,99.90
2022-07-26T13:06:42.706Z,99.90
2022-07-26T13:09:12.336Z,99.90
2022-07-26T13:11:40.581Z,99.90
2022-07-26T13:14:09.055Z,99.90
2022-07-26T13:16:37.385Z,99.90
2022-07-26T13:19:05.582Z,99.90
2022-07-26T13:21:33.854Z,99.90
2022-07-26T13:24:01.961Z,99.90
2022-07-26T13:26:31.536Z,99.90
2022-07-26T13:29:01.876Z,99.90
2022-07-26T13:31:30.194Z,99.90
2022-07-26T13:33:58.453Z,99.90
2022-07-26T13:36:26.641Z,99.90
2022-07-26T13:38:54.763Z,99.90
2022-07-26T13:41:23.134Z,99.90
2022-07-26T13:43:54.070Z,99.90
2022-07-26T13:46:22.341Z,99.90
2022-07-26T13:49:00.733Z,99.90
2022-07-26T13:51:51.397Z,99.90
2022-07-26T13:54:23.179Z,99.90
2022-07-26T13:56:51.729Z,99.90
2022-07-26T13:59:21.559Z,99.90
2022-07-26T14:01:49.782Z,99.90
2022-07-26T14:04:18.007Z,99.90
2022-07-26T14:06:46.442Z,99.90
2022-07-26T14:09:15.055Z,99.90
2022-07-26T14:11:43.708Z,99.90
2022-07-26T14:14:12.703Z,99.90
2022-07-26T14:16:42.701Z,99.90
2022-07-26T14:19:13.998Z,99.90
2022-07-26T14:21:59.685Z,99.90
2022-07-26T14:24:29.588Z,99.90
2022-07-26T14:26:59.564Z,99.90
2022-07-26T14:29:28.506Z,99.90
2022-07-26T14:31:58.287Z,99.90
2022-07-26T14:34:26.514Z,99.90
2022-07-26T14:36:54.606Z,99.90
2022-07-26T14:39:22.683Z,99.90
2022-07-26T14:41:50.867Z,99.90
2022-07-26T14:44:18.975Z,99.90
2022-07-26T14:46:47.074Z,99.90
2022-07-26T14:49:16.659Z,99.90
2022-07-26T14:51:44.966Z,99.90
2022-07-26T14:54:16.086Z,99.90
2022-07-26T14:56:44.164Z,99.90
2022-07-26T14:59:12.287Z,99.90
2022-07-26T15:01:40.436Z,99.90
2022-07-26T15:04:09.461Z,99.90
2022-07-26T15:06:39.139Z,99.90
2022-07-26T15:09:07.292Z,99.90
2022-07-26T15:11:35.969Z,99.90
2022-07-26T15:14:07.467Z,99.90
2022-07-26T15:16:36.004Z,99.90
2022-07-26T15:19:04.353Z,99.90
2022-07-26T15:21:32.401Z,99.90
2022-07-26T15:24:04.536Z,99.90
2022-07-26T15:26:32.736Z,99.90
2022-07-26T15:29:00.908Z,99.90
2022-07-26T15:31:37.121Z,99.90
2022-07-26T15:34:08.750Z,99.90
2022-07-26T15:36:37.400Z,99.90
2022-07-26T15:39:17.187Z,99.90
2022-07-26T15:41:46.122Z,99.90
2022-07-26T15:44:16.207Z,99.90
2022-07-26T15:46:47.940Z,99.90
2022-07-26T15:49:17.621Z,99.90
2022-07-26T15:51:45.997Z,99.90
2022-07-26T15:54:16.323Z,99.90
2022-07-26T15:56:44.570Z,99.90
2022-07-26T15:59:12.670Z,99.90
2022-07-26T16:01:40.836Z,99.90
2022-07-26T16:04:09.305Z,99.90
2022-07-26T16:06:37.600Z,99.90
2022-07-26T16:09:16.634Z,99.90
2022-07-26T16:11:47.777Z,99.90
2022-07-26T16:14:16.111Z,99.90
2022-07-26T16:16:44.546Z,99.90
2022-07-26T16:19:15.398Z,99.90
2022-07-26T16:21:43.813Z,99.90
2022-07-26T16:24:11.918Z,99.90
2022-07-26T16:26:40.878Z,99.90
2022-07-26T16:29:10.603Z,99.90
2022-07-26T16:31:39.803Z,99.90
2022-07-26T16:34:08.069Z,99.90
2022-07-26T16:36:36.449Z,99.90
2022-07-26T16:39:05.183Z,99.90
2022-07-26T16:41:33.536Z,99.90
2022-07-26T16:44:01.655Z,99.90
2022-07-26T16:46:32.442Z,99.90
2022-07-26T16:49:00.628Z,99.90
2022-07-26T16:51:28.792Z,99.90
2022-07-26T16:53:56.835Z,99.90
2022-07-26T16:56:24.898Z,99.90
2022-07-26T16:58:53.245Z,99.90
2022-07-26T17:01:21.879Z,99.90
2022-07-26T17:03:51.421Z,99.90
2022-07-26T17:06:19.546Z,99.90
2022-07-26T17:08:47.673Z,99.90
2022-07-26T17:11:15.805Z,99.90
2022-07-26T17:13:43.904Z,99.90
2022-07-26T17:16:12.020Z,99.90
2022-07-26T17:18:40.243Z,99.90
2022-07-26T17:21:09.735Z,99.90
2022-07-26T17:23:38.652Z,99.90
2022-07-26T17:26:06.774Z,99.90
2022-07-26T17:28:35.002Z,99.90
2022-07-26T17:31:03.245Z,99.90
2022-07-26T17:33:31.714Z,99.90
2022-07-26T17:36:03.234Z,99.90
2022-07-26T17:38:36.390Z,99.90
2022-07-26T17:41:05.606Z,99.90
2022-07-26T17:43:36.844Z,99.90
2022-07-26T17:46:05.482Z,99.90
2022-07-26T17:48:41.990Z,99.90
2022-07-26T17:51:10.178Z,99.90
2022-07-26T17:53:39.646Z,99.90
2022-07-26T17:56:07.808Z,99.90
2022-07-26T17:58:35.882Z,99.90
2022-07-26T18:01:12.163Z,99.90
2022-07-26T18:03:40.340Z,99.90
2022-07-26T18:06:08.694Z,99.90
2022-07-26T18:08:36.823Z,99.90
2022-07-26T18:11:09.976Z,99.90
2022-07-26T18:13:38.513Z,99.90
2022-07-26T18:16:06.842Z,99.90
2022-07-26T18:18:37.244Z,99.90
2022-07-26T18:21:05.537Z,99.90
2022-07-26T18:23:35.982Z,99.90
2022-07-26T18:26:04.916Z,99.90
2022-07-26T18:28:34.688Z,99.90
2022-07-26T18:31:05.852Z,99.90
2022-07-26T18:33:41.060Z,99.90
2022-07-26T18:36:12.515Z,99.90
2022-07-26T18:38:43.474Z,99.90
2022-07-26T18:41:13.742Z,99.90
2022-07-26T18:43:44.188Z,99.90
2022-07-26T18:46:12.370Z,99.90
2022-07-26T18:48:41.808Z,99.90
2022-07-26T18:51:11.131Z,99.90
2022-07-26T18:53:39.280Z,99.90
2022-07-26T18:56:09.248Z,99.90
2022-07-26T18:58:37.467Z,99.90
2022-07-26T19:01:08.393Z,99.90
2022-07-26T19:03:36.718Z,99.90
2022-07-26T19:06:06.423Z,99.90
2022-07-26T19:08:34.616Z,99.90
2022-07-26T19:11:02.664Z,99.90
2022-07-26T19:13:30.827Z,99.90
2022-07-26T19:15:59.099Z,99.90
2022-07-26T19:18:28.644Z,99.90
2022-07-26T19:20:56.867Z,99.90
2022-07-26T19:23:25.007Z,99.90
2022-07-26T19:25:53.124Z,99.90
2022-07-26T19:28:23.920Z,99.90
2022-07-26T19:30:52.049Z,99.90
2022-07-26T19:33:21.159Z,99.90
2022-07-26T19:35:53.627Z,99.90
2022-07-26T19:38:21.835Z,99.90
2022-07-26T19:40:52.890Z,99.90
2022-07-26T19:43:21.607Z,99.90
2022-07-26T19:45:49.724Z,99.90
2022-07-26T19:48:17.869Z,99.90
2022-07-26T19:50:45.964Z,99.90
2022-07-26T19:53:15.393Z,99.90
2022-07-26T19:55:43.586Z,99.90
2022-07-26T19:58:11.751Z,99.90
2022-07-26T20:00:39.963Z,99.90
2022-07-26T20:03:08.202Z,99.90
2022-07-26T20:05:39.644Z,99.90
2022-07-26T20:08:07.855Z,99.90
2022-07-26T20:10:37.356Z,99.90
2022-07-26T20:13:05.585Z,99.90
2022-07-26T20:15:33.716Z,99.90
2022-07-26T20:18:01.875Z,99.90
2022-07-26T20:20:30.139Z,99.90
2022-07-26T20:22:58.298Z,99.90
2022-07-26T20:25:26.440Z,99.90
2022-07-26T20:27:55.866Z,99.90
2022-07-26T20:30:23.980Z,99.90
2022-07-26T20:32:52.098Z,99.90
2022-07-26T20:35:20.510Z,99.90
2022-07-26T20:37:48.862Z,99.90
2022-07-26T20:40:18.528Z,99.90
2022-07-26T20:42:47.481Z,99.90
2022-07-26T20:45:18.937Z,99.90
2022-07-26T20:47:47.094Z,99.90
2022-07-26T20:50:15.164Z,99.90
2022-07-26T20:52:43.353Z,99.90
2022-07-26T20:55:12.068Z,99.90
2022-07-26T20:57:43.228Z,99.90
2022-07-26T21:00:13.057Z,99.90
2022-07-26T21:02:42.630Z,99.90
2022-07-26T21:05:11.928Z,99.90
2022-07-26T21:07:55.200Z,99.90
2022-07-26T21:10:28.033Z,99.90
2022-07-26T21:13:00.461Z,99.90
2022-07-26T21:15:36.261Z,99.90
2022-07-26T21:18:07.802Z,99.90
2022-07-26T21:20:36.052Z,99.90
2022-07-26T21:23:16.681Z,99.90
2022-07-26T21:25:48.147Z,99.90
2022-07-26T21:28:17.912Z,99.90
2022-07-26T21:30:48.771Z,99.90
2022-07-26T21:33:18.701Z,99.90
2022-07-26T21:35:51.140Z,99.90
2022-07-26T21:38:19.418Z,99.90
2022-07-26T21:40:51.545Z,99.90
2022-07-26T21:43:20.869Z,99.90
2022-07-26T21:45:49.211Z,99.90
2022-07-26T21:48:18.716Z,99.90
2022-07-26T21:50:46.852Z,99.90
2022-07-26T21:53:15.054Z,99.90
2022-07-26T21:55:43.812Z,99.90
2022-07-26T21:58:12.328Z,99.90
2022-07-26T22:00:40.706Z,99.90
2022-07-26T22:03:10.281Z,99.90
2022-07-26T22:05:40.242Z,99.90
2022-07-26T22:08:09.958Z,99.90
2022-07-26T22:10:43.994Z,99.90
2022-07-26T22:13:15.865Z,99.90
2022-07-26T22:15:47.435Z,99.90
2022-07-26T22:18:15.838Z,99.90
2022-07-26T22:20:49.218Z,99.90
2022-07-26T22:23:19.110Z,99.90
2022-07-26T22:25:47.719Z,99.90
2022-07-26T22:28:17.995Z,99.90
2022-07-26T22:30:47.365Z,99.90
2022-07-26T22:33:18.775Z,99.90
2022-07-26T22:35:49.040Z,99.90
2022-07-26T22:38:17.523Z,99.90
2022-07-26T22:40:45.984Z,99.90
2022-07-26T22:43:14.955Z,99.90
2022-07-26T22:45:45.913Z,99.90
2022-07-26T22:48:14.247Z,99.90
2022-07-26T22:50:44.245Z,99.90
2022-07-26T22:53:13.666Z,99.90
2022-07-26T22:55:42.265Z,99.90
2022-07-26T22:58:10.482Z,99.90
2022-07-26T23:00:38.573Z,99.90
2022-07-26T23:03:19.319Z,99.90
2022-07-26T23:05:49.405Z,99.90
2022-07-26T23:11:08.819Z,99.90
2022-07-26T23:13:36.896Z,99.90
2022-07-26T23:16:07.520Z,99.90
2022-07-26T23:18:38.032Z,99.90
2022-07-26T23:21:06.343Z,99.90
2022-07-26T23:23:35.761Z,99.90
2022-07-26T23:26:03.818Z,99.90
2022-07-26T23:28:35.432Z,99.90
2022-07-26T23:31:04.742Z,99.90
2022-07-26T23:33:52.366Z,99.90
2022-07-26T23:36:20.997Z,99.90
2022-07-26T23:38:50.384Z,99.90
2022-07-26T23:41:19.019Z,99.90
2022-07-26T23:43:47.157Z,99.90
2022-07-26T23:46:15.249Z,99.90
2022-07-26T23:48:43.534Z,99.90
2022-07-26T23:51:11.681Z,99.90
2022-07-26T23:53:39.789Z,99.90
2022-07-26T23:56:09.205Z,99.90
2022-07-26T23:58:37.569Z,99.90
